Time;durP1;ratioP1;P1;durP2;ratioP2;P2;SDS_P1;SDS_P2;PMS_P1;PMS_P2;Temp;Humidity;BMP_temperature;BMP_pressure;BME280_temperature;BME280_humidity;BME280_pressure;Samples;Min_cycle;Max_cycle;Signal;HPM_P1;HPM_P2
2022/01/06 00:01:07;;;;;;;;;21.50;13.00;;;;;5.50;63.54;101317.75;4928560;28;45852;-57
2022/01/06 00:03:34;;;;;;;;;16.25;15.75;;;;;5.30;63.51;101279.06;4972914;28;45773;-55
2022/01/06 00:06:04;;;;;;;;;16.40;13.60;;;;;4.88;64.11;101213.56;4976299;28;45485;-53
2022/01/06 00:08:30;;;;;;;;;14.80;13.20;;;;;5.45;64.19;101308.38;4958677;28;45475;-55
2022/01/06 00:10:55;;;;;;;;;16.00;14.50;;;;;5.26;63.75;101289.41;4975812;28;45158;-55
2022/01/06 00:13:45;;;;;;;;;16.25;12.75;;;;;5.35;63.94;101297.63;4976408;28;45371;-57
2022/01/06 00:16:24;;;;;;;;;9.80;9.00;;;;;5.48;63.97;101316.19;4975351;28;45446;-53
2022/01/06 00:24:29;;;;;;;;;15.00;12.80;;;;;5.18;64.02;101285.81;4975967;28;45312;-56
2022/01/06 00:26:56;;;;;;;;;14.00;12.75;;;;;5.39;63.92;101321.63;4974728;28;45413;-56
2022/01/06 00:29:22;;;;;;;;;16.20;12.20;;;;;5.12;64.68;101280.00;4958105;28;45792;-56
2022/01/06 00:31:47;;;;;;;;;10.25;6.50;;;;;5.36;64.25;101327.41;4974975;28;45521;-53
2022/01/06 00:34:13;;;;;;;;;12.75;12.25;;;;;5.37;64.58;101339.13;4958049;28;45420;-55
2022/01/06 00:36:41;;;;;;;;;17.25;14.75;;;;;5.36;64.68;101334.69;4976072;28;45456;-55
2022/01/06 00:39:07;;;;;;;;;18.20;16.00;;;;;5.31;64.72;101337.91;4974430;28;45421;-57
2022/01/06 00:41:34;;;;;;;;;12.75;12.75;;;;;5.31;64.86;101337.06;4958478;28;45395;-55
2022/01/06 00:44:01;;;;;;;;;16.20;16.00;;;;;5.29;64.54;101335.34;4959667;28;45376;-55
2022/01/06 00:46:26;;;;;;;;;14.20;11.40;;;;;5.32;64.64;101341.50;4958741;28;45342;-53
2022/01/06 00:48:51;;;;;;;;;18.25;13.75;;;;;5.28;64.67;101341.81;4974060;28;46374;-56
2022/01/06 00:51:17;;;;;;;;;13.25;13.25;;;;;4.64;64.58;101237.91;4975249;28;45252;-54
2022/01/06 00:53:42;;;;;;;;;13.00;12.75;;;;;5.23;64.36;101337.88;4974656;28;45328;-53
2022/01/06 00:56:08;;;;;;;;;19.25;17.25;;;;;5.19;64.52;101333.75;4976206;28;45383;-56
2022/01/06 00:58:35;;;;;;;;;19.75;13.25;;;;;5.25;64.91;101341.28;4976461;28;46259;-51
2022/01/06 01:01:00;;;;;;;;;15.40;12.40;;;;;5.23;64.91;101352.31;4975340;28;45332;-55
2022/01/06 01:03:27;;;;;;;;;24.00;15.50;;;;;5.24;65.22;101356.75;4967603;28;45477;-56
2022/01/06 01:05:53;;;;;;;;;15.40;15.40;;;;;5.17;64.71;101343.97;4954323;28;45412;-52
2022/01/06 01:08:18;;;;;;;;;11.75;11.25;;;;;5.26;64.52;101357.47;4973544;28;46582;-51
2022/01/06 01:10:44;;;;;;;;;12.25;11.00;;;;;5.25;64.71;101365.78;4974893;28;45904;-57
2022/01/06 01:13:13;;;;;;;;;14.25;13.00;;;;;5.26;64.19;101352.03;4957842;28;45355;-52
2022/01/06 01:15:52;;;;;;;;;14.40;14.40;;;;;5.25;64.49;101342.16;4974955;28;45636;-54
2022/01/06 01:18:19;;;;;;;;;19.60;13.60;;;;;4.99;65.14;101299.50;4974710;28;45344;-52
2022/01/06 01:20:51;;;;;;;;;12.80;12.80;;;;;5.02;65.14;101325.53;4975403;28;45363;-59
2022/01/06 01:23:17;;;;;;;;;16.60;9.60;;;;;4.95;64.86;101310.84;4957391;28;45274;-55
2022/01/06 01:25:43;;;;;;;;;18.00;14.20;;;;;5.14;64.73;101354.16;4974354;28;45348;-57
2022/01/06 01:28:10;;;;;;;;;18.50;14.75;;;;;5.10;65.20;101354.63;4976524;28;45526;-54
2022/01/06 01:31:00;;;;;;;;;14.60;13.00;;;;;5.05;64.85;101346.09;4978695;28;45213;-53
2022/01/06 01:33:25;;;;;;;;;14.00;12.80;;;;;5.11;64.46;101351.75;4977492;28;45415;-55
2022/01/06 01:35:51;;;;;;;;;13.25;12.50;;;;;5.07;65.73;101354.97;4977558;28;45237;-56
2022/01/06 01:38:16;;;;;;;;;15.00;14.00;;;;;5.06;64.99;101350.53;4960399;28;46637;-52
2022/01/06 01:40:42;;;;;;;;;46.75;37.75;;;;;5.07;64.63;101355.81;4978010;28;45344;-58
2022/01/06 01:43:07;;;;;;;;;20.25;13.50;;;;;5.04;65.75;101356.13;4978306;28;45280;-58
2022/01/06 01:45:34;;;;;;;;;16.25;14.25;;;;;5.01;64.99;101349.16;4978432;28;45252;-52
2022/01/06 01:48:04;;;;;;;;;17.60;15.80;;;;;5.04;64.92;101366.16;4978295;28;45435;-54
2022/01/06 01:50:30;;;;;;;;;14.00;12.40;;;;;5.00;65.22;101374.66;4977562;28;45410;-52
2022/01/06 01:52:57;;;;;;;;;14.00;12.75;;;;;5.03;64.94;101370.75;4978178;28;45374;-55
2022/01/06 01:55:27;;;;;;;;;17.20;15.00;;;;;4.87;65.39;101338.84;4978387;28;45427;-54
2022/01/06 01:57:52;;;;;;;;;16.80;16.60;;;;;4.98;65.08;101354.06;4960080;28;45660;-53
2022/01/06 02:00:20;;;;;;;;;16.25;13.00;;;;;5.04;65.11;101379.75;4960778;28;45757;-53
2022/01/06 02:02:45;;;;;;;;;12.80;12.80;;;;;5.01;65.64;101379.06;4977871;28;45456;-54
2022/01/06 02:05:11;;;;;;;;;15.75;15.25;;;;;5.01;65.75;101372.78;4978232;28;45376;-56
2022/01/06 02:07:40;;;;;;;;;7.25;7.25;;;;;4.99;65.08;101375.66;4978113;28;45323;-53
2022/01/06 02:10:07;;;;;;;;;18.80;14.80;;;;;5.01;65.42;101381.78;4977698;28;45407;-54
2022/01/06 02:12:36;;;;;;;;;16.20;13.20;;;;;4.97;65.14;101374.13;4977936;28;45408;-56
2022/01/06 02:15:06;;;;;;;;;15.20;13.80;;;;;4.96;65.73;101380.59;4977886;28;45329;-59
2022/01/06 02:17:32;;;;;;;;;15.00;13.40;;;;;4.68;65.80;101339.88;4977534;28;46831;-53
2022/01/06 02:19:58;;;;;;;;;18.25;14.25;;;;;4.94;66.16;101388.91;4959945;28;45391;-55
2022/01/06 02:22:24;;;;;;;;;13.80;13.20;;;;;4.65;65.14;101338.38;4977858;28;45393;-58
2022/01/06 02:24:50;;;;;;;;;14.00;12.75;;;;;4.94;65.40;101379.88;4977486;28;45657;-57
2022/01/06 02:27:15;;;;;;;;;9.00;9.00;;;;;4.92;65.51;101382.75;4975684;28;45639;-58
2022/01/06 02:29:42;;;;;;;;;17.25;13.00;;;;;4.91;65.46;101381.03;4977455;28;45434;-53
2022/01/06 02:32:09;;;;;;;;;15.80;10.00;;;;;4.89;65.29;101383.06;4959834;28;45767;-57
2022/01/06 02:34:35;;;;;;;;;13.60;9.80;;;;;4.86;65.28;101389.69;4977540;28;45227;-56
2022/01/06 02:37:02;;;;;;;;;12.75;12.75;;;;;4.79;65.58;101376.88;4977079;28;46100;-51
2022/01/06 02:39:27;;;;;;;;;19.20;13.20;;;;;4.83;65.72;101389.13;4978146;28;45746;-57
2022/01/06 02:41:53;;;;;;;;;12.50;11.25;;;;;4.81;65.44;101392.00;4976591;28;45901;-58
2022/01/06 02:44:21;;;;;;;;;17.00;14.25;;;;;4.75;65.65;101389.91;4977460;28;45444;-52
2022/01/06 02:46:46;;;;;;;;;14.00;12.80;;;;;4.39;65.12;101347.31;4976844;28;46532;-54
2022/01/06 02:49:12;;;;;;;;;13.50;13.00;;;;;4.64;66.15;101376.59;4976879;28;45709;-58
2022/01/06 02:51:40;;;;;;;;;17.50;15.50;;;;;4.61;65.91;101377.75;4977583;28;45425;-51
2022/01/06 02:54:05;;;;;;;;;17.00;12.20;;;;;4.68;66.13;101378.84;4959405;28;45615;-53
2022/01/06 02:56:32;;;;;;;;;17.00;15.00;;;;;4.70;65.71;101387.69;4977189;28;45736;-57
2022/01/06 02:58:58;;;;;;;;;10.80;10.00;;;;;4.57;65.80;101376.34;4976877;28;45459;-54
2022/01/06 03:01:23;;;;;;;;;12.75;8.00;;;;;4.59;65.54;101393.38;4977174;28;45429;-54
2022/01/06 03:03:48;;;;;;;;;13.50;11.50;;;;;4.39;66.06;101360.06;4976169;28;45368;-57
2022/01/06 03:06:14;;;;;;;;;17.25;17.25;;;;;4.47;65.64;101377.28;4977177;28;46421;-53
2022/01/06 03:08:39;;;;;;;;;17.75;15.00;;;;;4.58;65.77;101406.09;4968981;28;45720;-54
2022/01/06 03:11:07;;;;;;;;;30.25;24.00;;;;;4.32;65.93;101371.53;4977033;28;45356;-56
2022/01/06 03:13:32;;;;;;;;;22.60;16.00;;;;;4.55;65.69;101413.72;4975200;28;45645;-52
2022/01/06 03:15:59;;;;;;;;;16.00;14.25;;;;;4.55;66.36;101416.44;4976170;28;46300;-55
2022/01/06 03:18:24;;;;;;;;;16.20;13.60;;;;;4.37;66.27;101381.09;4958198;28;45262;-56
2022/01/06 03:20:50;;;;;;;;;15.50;12.50;;;;;4.56;65.42;101412.72;4974290;28;45352;-57
2022/01/06 03:23:16;;;;;;;;;19.00;14.75;;;;;4.58;65.41;101418.84;4957579;28;45566;-50
2022/01/06 03:25:41;;;;;;;;;18.50;12.00;;;;;4.27;65.87;101387.44;4973457;28;46544;-54
2022/01/06 03:28:07;;;;;;;;;18.75;17.25;;;;;4.53;66.44;101418.47;4975466;28;45479;-52
2022/01/06 03:30:32;;;;;;;;;16.00;14.75;;;;;4.57;66.53;101420.72;4976772;28;45590;-54
2022/01/06 03:32:58;;;;;;;;;15.75;15.75;;;;;4.58;65.47;101416.13;4976381;28;45894;-56
2022/01/06 03:35:23;;;;;;;;;19.50;17.50;;;;;4.66;66.13;101418.06;4975319;28;46457;-56
2022/01/06 03:37:49;;;;;;;;;84.33;65.33;;;;;4.34;64.82;101374.94;4976422;28;45423;-55
2022/01/06 03:40:15;;;;;;;;;20.00;20.00;;;;;4.48;66.22;101398.03;4959252;28;45306;-56
2022/01/06 03:42:40;;;;;;;;;27.75;21.25;;;;;4.69;65.74;101426.75;4976785;28;45559;-53
2022/01/06 03:45:11;;;;;;;;;15.50;15.50;;;;;4.59;65.59;101426.00;4958893;28;45408;-57
2022/01/06 03:47:36;;;;;;;;;14.60;11.80;;;;;4.56;65.38;101412.72;4976636;28;45260;-56
2022/01/06 03:50:02;;;;;;;;;16.75;14.00;;;;;4.47;65.60;101418.06;4958922;28;45409;-54
2022/01/06 03:52:28;;;;;;;;;16.00;16.00;;;;;4.47;66.72;101420.78;4976397;28;45355;-55
2022/01/06 03:54:53;;;;;;;;;17.50;12.25;;;;;4.50;66.16;101426.91;4976298;28;45839;-55
2022/01/06 03:57:19;;;;;;;;;14.00;12.50;;;;;4.46;65.78;101418.22;4975941;28;45419;-55
2022/01/06 03:59:44;;;;;;;;;15.25;12.00;;;;;4.50;66.63;101430.50;4975881;28;45513;-57
2022/01/06 04:02:10;;;;;;;;;14.75;14.75;;;;;4.48;66.29;101429.78;4976620;28;45379;-55
2022/01/06 04:04:35;;;;;;;;;24.00;16.00;;;;;4.56;66.49;101435.31;4958394;28;45777;-51
2022/01/06 04:07:01;;;;;;;;;19.25;15.50;;;;;4.56;65.79;101424.44;4976280;28;45379;-57
2022/01/06 04:09:26;;;;;;;;;22.25;17.00;;;;;4.41;66.51;101398.78;4958599;28;45436;-55
2022/01/06 04:11:52;;;;;;;;;16.00;14.00;;;;;4.63;65.68;101435.53;4974933;28;45465;-54
2022/01/06 04:14:17;;;;;;;;;12.50;12.50;;;;;4.68;65.59;101443.22;4958087;28;46610;-57
2022/01/06 04:16:43;;;;;;;;;12.25;11.00;;;;;4.71;65.43;101437.50;4958212;28;45386;-53
2022/01/06 04:19:09;;;;;;;;;12.75;10.00;;;;;4.72;66.25;101439.19;4975981;28;45152;-51
2022/01/06 04:21:34;;;;;;;;;18.00;15.25;;;;;4.71;65.23;101440.22;4974864;28;45583;-51
2022/01/06 04:24:00;;;;;;;;;15.50;13.50;;;;;4.61;65.49;101432.13;4976627;28;45397;-55
2022/01/06 04:26:25;;;;;;;;;13.50;13.00;;;;;4.44;66.03;101396.63;4976729;28;45297;-56
2022/01/06 04:28:51;;;;;;;;;14.25;14.25;;;;;4.67;66.07;101431.50;4975661;28;45426;-56
2022/01/06 04:31:16;;;;;;;;;15.00;12.00;;;;;4.60;65.93;101425.84;4976314;28;45238;-52
2022/01/06 04:33:42;;;;;;;;;16.25;12.75;;;;;4.35;65.29;101381.25;4958349;28;48313;-58
2022/01/06 04:36:08;;;;;;;;;11.75;11.25;;;;;4.63;65.27;101435.53;4974367;28;45426;-55
2022/01/06 04:38:34;;;;;;;;;13.40;13.40;;;;;4.68;65.49;101435.06;4976237;28;45473;-54
2022/01/06 04:41:00;;;;;;;;;11.25;10.00;;;;;4.40;65.33;101392.53;4975558;28;45671;-58
2022/01/06 04:43:25;;;;;;;;;14.00;12.25;;;;;4.37;65.42;101392.81;4974185;28;46055;-53
2022/01/06 04:45:51;;;;;;;;;16.25;14.25;;;;;4.57;65.81;101436.16;4975862;28;45376;-55
2022/01/06 04:48:16;;;;;;;;;12.50;10.00;;;;;4.56;66.36;101431.75;4976533;28;45681;-54
2022/01/06 04:50:42;;;;;;;;;16.00;13.00;;;;;4.34;65.86;101404.00;4975781;28;45661;-54
2022/01/06 04:53:07;;;;;;;;;21.25;13.75;;;;;4.43;66.34;101421.25;4975191;28;45561;-54
2022/01/06 04:55:33;;;;;;;;;14.75;13.25;;;;;4.28;66.19;101393.75;4975692;28;45309;-60
2022/01/06 04:57:58;;;;;;;;;14.75;14.25;;;;;4.48;65.92;101430.66;4941612;28;45648;-55
2022/01/06 05:00:24;;;;;;;;;18.25;14.00;;;;;4.45;65.66;101420.09;4975409;28;45380;-56
2022/01/06 05:02:49;;;;;;;;;15.00;12.00;;;;;4.49;66.25;101434.25;4976436;28;45749;-57
2022/01/06 05:05:15;;;;;;;;;11.25;11.25;;;;;4.49;66.56;101439.69;4978524;28;45357;-53
2022/01/06 05:07:41;;;;;;;;;18.50;12.75;;;;;4.40;67.02;101440.59;4979283;28;45275;-55
2022/01/06 05:10:07;;;;;;;;;16.80;13.20;;;;;4.19;66.31;101401.84;4978761;28;45646;-57
2022/01/06 05:12:33;;;;;;;;;12.60;12.00;;;;;4.44;66.01;101451.00;4977653;28;47797;-58
2022/01/06 05:14:59;;;;;;;;;20.50;13.00;;;;;4.39;66.39;101444.31;4978578;28;45391;-51
2022/01/06 05:17:25;;;;;;;;;15.60;15.00;;;;;4.47;66.67;101455.28;4977492;28;45415;-53
2022/01/06 05:19:51;;;;;;;;;14.60;14.40;;;;;4.45;65.96;101460.88;4978973;28;45281;-57
2022/01/06 05:22:16;;;;;;;;;13.25;11.75;;;;;4.33;66.57;101445.78;4978335;28;45737;-53
2022/01/06 05:24:42;;;;;;;;;12.50;11.50;;;;;4.37;66.60;101449.91;4971779;28;45277;-54
2022/01/06 05:27:10;;;;;;;;;13.50;12.25;;;;;4.42;66.33;101461.16;4954158;28;45270;-59
2022/01/06 05:29:36;;;;;;;;;18.20;13.80;;;;;4.39;66.66;101456.06;4978408;28;45376;-55
2022/01/06 05:32:02;;;;;;;;;20.50;12.25;;;;;4.41;66.64;101458.59;4978453;28;45614;-51
2022/01/06 05:34:27;;;;;;;;;14.00;12.50;;;;;4.42;66.91;101461.16;4978075;28;45337;-55
2022/01/06 05:36:52;;;;;;;;;18.50;16.00;;;;;4.29;66.05;101445.25;4978451;28;45398;-56
2022/01/06 05:39:18;;;;;;;;;16.25;13.50;;;;;3.64;66.44;101343.81;4977424;28;45721;-54
2022/01/06 05:41:45;;;;;;;;;12.00;12.00;;;;;4.40;66.77;101470.50;4978111;28;45385;-57
2022/01/06 05:44:11;;;;;;;;;15.00;13.00;;;;;4.40;66.22;101475.91;4978367;28;45436;-56
2022/01/06 05:46:36;;;;;;;;;17.20;12.40;;;;;4.37;66.76;101468.09;4960496;28;45460;-56
2022/01/06 05:49:02;;;;;;;;;17.75;12.00;;;;;4.37;66.63;101471.66;4978556;28;45290;-54
2022/01/06 05:51:28;;;;;;;;;19.80;15.60;;;;;4.36;66.45;101474.53;4943603;28;46793;-53
2022/01/06 05:53:54;;;;;;;;;15.25;14.25;;;;;4.18;66.46;101457.16;4977918;28;45344;-52
2022/01/06 05:56:20;;;;;;;;;17.50;16.25;;;;;4.37;66.44;101485.22;4977923;28;45811;-52
2022/01/06 05:58:45;;;;;;;;;10.60;9.00;;;;;4.38;66.22;101478.78;4976924;28;45542;-53
2022/01/06 06:01:11;;;;;;;;;11.75;11.75;;;;;4.41;67.17;101480.34;4977814;28;45375;-53
2022/01/06 06:03:36;;;;;;;;;16.00;12.00;;;;;4.46;66.37;101484.34;4978254;28;45288;-51
2022/01/06 06:06:02;;;;;;;;;13.50;13.50;;;;;4.51;66.40;101481.16;4957167;28;45555;-54
2022/01/06 06:08:28;;;;;;;;;17.60;15.20;;;;;4.49;66.53;101485.91;4981192;28;45475;-56
2022/01/06 06:10:53;;;;;;;;;17.75;15.25;;;;;4.45;66.61;101489.91;4961089;28;47670;-56
2022/01/06 06:13:19;;;;;;;;;15.00;12.00;;;;;4.45;65.89;101496.22;4978453;28;45416;-57
2022/01/06 06:15:45;;;;;;;;;13.25;12.00;;;;;4.43;66.21;101505.53;4976335;28;45301;-57
2022/01/06 06:18:12;;;;;;;;;13.25;11.50;;;;;4.03;66.51;101440.53;4977861;28;45461;-52
2022/01/06 06:20:38;;;;;;;;;9.80;9.80;;;;;4.28;66.96;101472.56;4977764;28;46026;-53
2022/01/06 06:23:03;;;;;;;;;20.00;13.50;;;;;4.40;66.38;101493.09;4993076;28;45220;-56
2022/01/06 06:25:29;;;;;;;;;21.25;14.75;;;;;4.34;66.45;101491.81;4974641;28;45376;-54
2022/01/06 06:27:54;;;;;;;;;20.00;14.50;;;;;4.45;66.56;101515.25;4992226;28;45300;-55
2022/01/06 06:30:20;;;;;;;;;17.75;14.75;;;;;4.44;66.62;101513.50;4997612;28;45338;-58
2022/01/06 06:32:45;;;;;;;;;16.50;15.00;;;;;4.44;65.77;101524.38;4996778;28;45347;-57
2022/01/06 06:35:11;;;;;;;;;18.75;17.75;;;;;4.43;66.02;101514.53;4997293;28;45321;-55
2022/01/06 06:37:38;;;;;;;;;13.80;12.00;;;;;4.44;66.14;101524.38;4995501;28;45605;-58
2022/01/06 06:40:07;;;;;;;;;17.75;15.00;;;;;4.40;66.75;101516.69;4996869;28;45521;-52
2022/01/06 06:42:32;;;;;;;;;22.20;17.20;;;;;4.45;66.68;101526.13;4996013;28;45301;-54
2022/01/06 06:44:58;;;;;;;;;20.25;15.25;;;;;4.50;67.00;101539.25;4997324;28;45364;-57
2022/01/06 06:47:23;;;;;;;;;19.75;16.00;;;;;4.48;65.58;101541.25;4997060;28;45242;-58
2022/01/06 06:49:49;;;;;;;;;15.75;15.00;;;;;4.39;66.20;101537.59;4995143;28;45469;-59
2022/01/06 06:52:14;;;;;;;;;15.00;12.00;;;;;4.28;66.64;101503.31;4956449;28;45373;-56
2022/01/06 06:54:40;;;;;;;;;13.50;12.00;;;;;4.48;65.83;101522.22;4957652;28;45431;-56
2022/01/06 06:57:05;;;;;;;;;16.00;15.00;;;;;4.54;66.86;101526.22;4957617;28;45293;-54
2022/01/06 06:59:31;;;;;;;;;6.25;6.25;;;;;4.56;66.79;101526.91;4957862;28;45498;-57
2022/01/06 07:01:57;;;;;;;;;21.50;18.25;;;;;4.57;66.86;101523.16;4958046;28;45314;-58
2022/01/06 07:04:23;;;;;;;;;20.00;15.00;;;;;4.63;66.79;101528.00;4959156;28;45344;-55
2022/01/06 07:06:48;;;;;;;;;27.20;25.20;;;;;4.62;65.81;101529.00;4957256;28;45436;-55
2022/01/06 07:09:14;;;;;;;;;83.33;64.67;;;;;4.68;66.09;101536.56;4957528;28;46291;-56
2022/01/06 07:11:39;;;;;;;;;34.25;27.25;;;;;4.70;66.04;101539.97;4957426;28;45325;-54
2022/01/06 07:14:05;;;;;;;;;15.00;14.75;;;;;4.71;66.11;101536.25;4955724;28;45350;-57
2022/01/06 07:16:30;;;;;;;;;12.00;12.00;;;;;4.73;65.69;101538.81;4940484;28;45472;-59
2022/01/06 07:18:56;;;;;;;;;17.50;16.00;;;;;4.70;66.01;101548.13;4956865;28;46691;-57
2022/01/06 07:21:21;;;;;;;;;12.75;12.75;;;;;4.70;66.38;101534.53;4956325;28;45420;-58
2022/01/06 07:23:47;;;;;;;;;17.75;15.75;;;;;4.68;66.17;101547.44;4956248;28;45480;-57
2022/01/06 07:26:12;;;;;;;;;18.75;13.75;;;;;4.60;65.73;101529.16;4956872;28;45408;-57
2022/01/06 07:28:38;;;;;;;;;16.50;13.00;;;;;4.52;65.73;101547.25;4959394;28;46397;-54
2022/01/06 07:31:04;;;;;;;;;16.00;15.50;;;;;4.41;67.12;101537.44;4988446;28;45158;-57
2022/01/06 07:33:30;;;;;;;;;18.00;15.80;;;;;4.48;66.10;101539.41;4994250;28;45314;-59
2022/01/06 07:35:56;;;;;;;;;16.20;12.00;;;;;3.82;66.21;101419.06;4994926;28;45605;-58
2022/01/06 07:38:23;;;;;;;;;16.75;14.00;;;;;4.61;66.28;101554.50;4996121;28;45265;-55
2022/01/06 07:40:48;;;;;;;;;17.80;13.80;;;;;4.60;65.30;101550.91;4978560;28;45517;-57
2022/01/06 07:43:14;;;;;;;;;18.25;15.75;;;;;4.52;66.61;101553.53;4994802;28;45506;-57
2022/01/06 07:45:39;;;;;;;;;11.00;11.00;;;;;4.58;65.70;101557.50;4978774;28;45553;-57
2022/01/06 07:48:15;;;;;;;;;19.00;15.25;;;;;4.64;65.95;101547.91;4995311;28;46423;-58
2022/01/06 07:50:40;;;;;;;;;15.80;13.20;;;;;4.67;66.71;101550.31;4992256;28;45351;-57
2022/01/06 07:53:06;;;;;;;;;22.00;18.25;;;;;4.69;66.00;101562.75;4976208;28;45430;-57
2022/01/06 07:55:31;;;;;;;;;20.50;17.75;;;;;4.73;66.17;101572.31;4976561;28;45645;-58
2022/01/06 07:57:57;;;;;;;;;19.25;14.25;;;;;4.78;64.99;101563.69;4976424;28;45527;-55
2022/01/06 08:00:23;;;;;;;;;16.20;11.80;;;;;4.80;65.97;101569.00;4942075;28;46381;-56
2022/01/06 08:02:49;;;;;;;;;15.75;12.25;;;;;4.79;66.05;101565.41;4960218;28;45330;-58
2022/01/06 08:05:15;;;;;;;;;12.75;9.25;;;;;4.61;65.74;101538.19;4957353;28;45388;-54
2022/01/06 08:07:41;;;;;;;;;12.60;12.20;;;;;4.78;65.94;101563.69;4956611;28;46259;-58
2022/01/06 08:10:07;;;;;;;;;11.75;11.75;;;;;4.56;66.33;101522.34;4957012;28;45357;-58
2022/01/06 08:12:33;;;;;;;;;22.40;16.40;;;;;4.83;66.10;101561.38;4956948;28;45437;-54
2022/01/06 08:14:59;;;;;;;;;13.00;12.00;;;;;4.85;65.93;101553.91;4956600;28;45482;-50
2022/01/06 08:17:24;;;;;;;;;14.50;14.50;;;;;4.87;66.29;101561.91;4974195;28;45743;-59
2022/01/06 08:19:51;;;;;;;;;16.75;14.75;;;;;4.89;66.23;101559.91;4975938;28;45460;-56
2022/01/06 08:22:18;;;;;;;;;21.20;16.20;;;;;4.93;65.78;101557.72;4958955;28;45492;-51
2022/01/06 08:24:43;;;;;;;;;17.60;15.20;;;;;4.95;65.20;101569.28;4974661;28;45506;-56
2022/01/06 08:27:09;;;;;;;;;27.25;20.50;;;;;4.95;64.79;101563.84;4974267;28;45363;-59
2022/01/06 08:29:35;;;;;;;;;12.75;12.75;;;;;4.70;65.51;101529.09;4975664;28;45324;-50
2022/01/06 08:32:01;;;;;;;;;18.20;17.60;;;;;4.92;64.76;101573.22;4945443;28;45340;-53
2022/01/06 08:34:27;;;;;;;;;20.00;16.50;;;;;4.81;65.58;101562.53;4974508;28;45441;-57
2022/01/06 08:36:53;;;;;;;;;17.00;14.75;;;;;4.88;66.10;101574.50;4975212;28;46505;-52
2022/01/06 08:39:19;;;;;;;;;15.60;15.60;;;;;4.92;65.83;101577.78;4974895;28;45327;-54
2022/01/06 08:41:45;;;;;;;;;17.75;15.50;;;;;4.93;65.69;101582.19;4975644;28;45546;-59
2022/01/06 08:44:10;;;;;;;;;19.75;16.00;;;;;4.94;65.35;101573.91;4968459;28;45587;-55
2022/01/06 08:46:36;;;;;;;;;20.00;18.50;;;;;4.90;65.15;101575.19;4969580;28;46814;-51
2022/01/06 08:49:02;;;;;;;;;15.25;13.75;;;;;4.87;65.94;101579.09;4974500;28;45424;-56
2022/01/06 08:51:28;;;;;;;;;17.60;14.80;;;;;4.69;65.35;101553.75;4975308;28;45440;-53
2022/01/06 08:53:54;;;;;;;;;19.50;16.50;;;;;4.90;65.03;101583.38;4975333;28;45234;-57
2022/01/06 08:56:20;;;;;;;;;18.75;15.25;;;;;4.62;64.83;101542.63;4974913;28;45609;-61
2022/01/06 08:58:45;;;;;;;;;23.25;20.00;;;;;4.66;65.09;101543.16;4973458;28;45179;-55
2022/01/06 09:01:12;;;;;;;;;21.25;16.50;;;;;4.91;65.58;101579.63;4974419;28;45330;-55
2022/01/06 09:03:37;;;;;;;;;25.60;22.40;;;;;5.04;65.26;101592.00;4975107;28;45530;-58
2022/01/06 09:06:03;;;;;;;;;21.00;16.25;;;;;4.93;64.77;101574.91;4974605;28;46538;-56
2022/01/06 09:08:28;;;;;;;;;19.75;19.00;;;;;4.99;64.82;101593.34;4975135;28;45287;-54
2022/01/06 09:10:54;;;;;;;;;16.00;16.00;;;;;5.07;65.37;101594.44;4957734;28;45434;-57
2022/01/06 09:13:20;;;;;;;;;20.00;17.00;;;;;5.11;65.59;101585.78;4957673;28;45543;-54
2022/01/06 09:15:45;;;;;;;;;17.00;15.25;;;;;4.84;65.42;101532.28;4974740;28;45311;-53
2022/01/06 09:18:11;;;;;;;;;12.50;12.50;;;;;5.24;64.83;101590.00;4969074;28;45362;-60
2022/01/06 09:20:36;;;;;;;;;19.25;16.75;;;;;5.30;64.83;101589.38;4967660;28;45532;-57
2022/01/06 09:23:02;;;;;;;;;20.75;20.25;;;;;5.30;64.62;101594.81;4960838;28;45671;-52
2022/01/06 09:25:28;;;;;;;;;17.00;17.00;;;;;5.40;64.90;101594.75;4969529;28;45906;-54
2022/01/06 09:27:54;;;;;;;;;12.75;12.75;;;;;5.39;64.35;101590.31;4948406;28;45779;-56
2022/01/06 09:30:23;;;;;;;;;19.00;11.00;;;;;5.42;64.10;101588.13;4970400;28;45567;-53
2022/01/06 09:32:49;;;;;;;;;18.60;18.60;;;;;5.46;63.96;101601.41;4938713;28;46086;-54
2022/01/06 09:35:14;;;;;;;;;18.75;14.50;;;;;5.38;64.51;101588.56;4970149;28;46847;-57
2022/01/06 09:37:40;;;;;;;;;18.25;16.75;;;;;5.50;64.55;101606.38;4967674;28;45545;-51
2022/01/06 09:40:08;;;;;;;;;16.75;16.75;;;;;5.51;63.79;101613.53;4970316;28;45416;-55
2022/01/06 09:42:33;;;;;;;;;17.60;14.80;;;;;5.50;64.40;101614.56;4954316;28;45457;-57
2022/01/06 09:44:59;;;;;;;;;27.50;23.50;;;;;5.37;64.22;101600.47;4970922;28;45468;-53
2022/01/06 09:47:27;;;;;;;;;16.20;14.60;;;;;5.20;64.08;101567.69;4968552;28;45505;-50
2022/01/06 09:49:52;;;;;;;;;17.20;14.00;;;;;5.14;64.58;101555.53;4971422;28;45520;-50
2022/01/06 09:52:18;;;;;;;;;21.75;14.50;;;;;5.53;63.79;101614.25;4963519;28;45786;-54
2022/01/06 09:54:44;;;;;;;;;17.00;13.00;;;;;5.52;64.09;101620.72;4955631;28;45890;-56
2022/01/06 09:57:12;;;;;;;;;17.75;15.00;;;;;5.54;63.54;101621.41;4955581;28;45463;-52
2022/01/06 09:59:41;;;;;;;;;19.40;15.00;;;;;5.62;64.35;101628.81;4971776;28;45495;-53
2022/01/06 10:02:13;;;;;;;;;18.60;13.20;;;;;5.41;63.64;101588.28;4973986;28;45510;-56
2022/01/06 10:04:38;;;;;;;;;16.20;16.20;;;;;5.69;63.79;101627.16;4973441;28;46403;-53
2022/01/06 10:07:05;;;;;;;;;17.50;16.00;;;;;5.70;62.97;101619.81;4972129;28;45442;-52
2022/01/06 10:09:33;;;;;;;;;15.80;13.80;;;;;5.75;63.44;101628.38;4973298;28;45439;-52
2022/01/06 10:11:58;;;;;;;;;21.20;18.20;;;;;5.79;63.53;101634.38;4955784;28;45557;-56
2022/01/06 10:14:32;;;;;;;;;15.75;14.25;;;;;5.76;63.39;101612.91;4972600;28;45478;-53
2022/01/06 10:16:58;;;;;;;;;15.00;13.80;;;;;5.83;62.63;101628.44;4955287;28;45548;-57
2022/01/06 10:19:24;;;;;;;;;16.80;16.40;;;;;5.88;63.00;101629.84;4954853;28;45470;-54
2022/01/06 10:21:56;;;;;;;;;15.75;15.50;;;;;5.75;62.34;101598.41;4972835;28;45405;-49
2022/01/06 10:24:22;;;;;;;;;12.40;10.40;;;;;5.76;62.33;101610.19;4972979;28;47001;-53
2022/01/06 10:27:01;;;;;;;;;13.00;11.50;;;;;5.82;62.90;101617.72;4973392;28;45522;-50
2022/01/06 10:29:30;;;;;;;;;11.60;11.20;;;;;5.92;63.16;101623.06;4973004;28;45610;-53
2022/01/06 10:32:06;;;;;;;;;14.80;11.60;;;;;5.96;62.51;101629.91;4973767;28;45383;-51
2022/01/06 10:34:32;;;;;;;;;9.40;8.60;;;;;6.01;62.57;101627.56;4988712;28;47339;-52
2022/01/06 10:36:58;;;;;;;;;13.20;12.40;;;;;6.04;62.84;101629.13;4988403;28;45355;-53
2022/01/06 10:39:23;;;;;;;;;16.75;12.50;;;;;6.09;62.25;101610.44;4934248;28;45864;-55
2022/01/06 10:41:49;;;;;;;;;12.00;12.00;;;;;6.30;62.44;101631.84;4935401;28;45513;-49
2022/01/06 10:44:14;;;;;;;;;15.00;13.25;;;;;6.20;62.01;101590.22;4932663;28;46814;-50
2022/01/06 10:46:41;;;;;;;;;11.50;11.25;;;;;6.38;61.74;101625.59;4971517;28;45456;-52
2022/01/06 10:49:12;;;;;;;;;11.20;10.40;;;;;5.82;61.28;101544.16;4970997;28;45461;-52
2022/01/06 10:51:40;;;;;;;;;11.40;9.60;;;;;6.15;60.98;101614.38;4971399;28;45476;-51
2022/01/06 10:54:12;;;;;;;;;9.60;8.20;;;;;6.23;61.95;101611.69;4955411;28;46119;-52
2022/01/06 10:56:37;;;;;;;;;11.00;11.00;;;;;6.36;61.60;101605.81;4955627;28;45430;-54
2022/01/06 10:59:03;;;;;;;;;17.00;12.75;;;;;6.50;61.60;101605.19;4953517;28;45600;-52
2022/01/06 11:01:31;;;;;;;;;16.25;12.75;;;;;6.64;60.42;101600.13;4972005;28;45676;-60
2022/01/06 11:03:57;;;;;;;;;12.80;10.80;;;;;6.60;60.44;101575.06;4972169;28;46627;-61
2022/01/06 11:06:22;;;;;;;;;16.50;11.00;;;;;6.78;60.69;101585.00;4954785;28;45873;-53
2022/01/06 11:08:49;;;;;;;;;14.75;11.75;;;;;6.85;60.09;101582.47;4954620;28;45489;-54
2022/01/06 11:11:28;;;;;;;;;24.80;18.20;;;;;6.93;60.12;101585.19;4939356;28;45548;-52
2022/01/06 11:13:54;;;;;;;;;26.40;22.60;;;;;6.77;59.23;101540.50;4972878;28;45514;-53
2022/01/06 11:16:19;;;;;;;;;15.00;12.75;;;;;6.99;59.14;101570.88;4953882;28;45474;-56
2022/01/06 11:18:50;;;;;;;;;10.75;9.50;;;;;7.09;59.18;101578.09;4973136;28;45505;-53